createdAt,value
2023-03-05T00:01:34.802Z,17.60
2023-03-05T00:04:17.884Z,18.40
2023-03-05T00:06:55.642Z,18.30
2023-03-05T00:09:31.720Z,18.20
2023-03-05T00:12:10.209Z,18.50
2023-03-05T00:14:48.199Z,18.70
2023-03-05T00:17:25.273Z,18.80
2023-03-05T00:20:03.478Z,17.80
2023-03-05T00:22:42.048Z,18.10
2023-03-05T00:25:20.995Z,17.60
2023-03-05T00:27:57.597Z,16.80
2023-03-05T00:30:34.227Z,17.90
2023-03-05T00:33:10.897Z,17.20
2023-03-05T00:35:50.667Z,17.60
2023-03-05T00:38:28.102Z,19.50
2023-03-05T00:41:04.206Z,17.20
2023-03-05T00:43:41.039Z,17.40
2023-03-05T00:46:17.560Z,17.50
2023-03-05T00:48:55.001Z,17.40
2023-03-05T00:51:31.352Z,17.70
2023-03-05T00:54:08.828Z,16.80
2023-03-05T00:56:45.836Z,18.60
2023-03-05T00:59:23.241Z,16.00
2023-03-05T01:01:58.761Z,16.50
2023-03-05T01:04:34.959Z,17.70
2023-03-05T01:07:11.371Z,17.00
2023-03-05T01:09:47.852Z,16.80
2023-03-05T01:12:24.098Z,17.70
2023-03-05T01:14:59.840Z,16.80
2023-03-05T01:17:36.456Z,17.50
2023-03-05T01:20:21.736Z,16.10
2023-03-05T01:22:59.249Z,19.00
2023-03-05T01:25:35.783Z,17.10
2023-03-05T01:28:13.642Z,18.30
2023-03-05T01:30:50.768Z,21.40
2023-03-05T01:33:27.828Z,18.10
2023-03-05T01:36:03.887Z,21.10
2023-03-05T01:38:40.199Z,21.60
2023-03-05T01:41:17.644Z,21.90
2023-03-05T01:43:55.495Z,21.90
2023-03-05T01:46:38.823Z,24.40
2023-03-05T01:49:29.219Z,24.30
2023-03-05T01:52:18.093Z,25.40
2023-03-05T01:55:00.832Z,25.50
2023-03-05T01:57:42.785Z,27.90
2023-03-05T02:00:28.010Z,25.00
2023-03-05T02:03:08.527Z,23.00
2023-03-05T02:05:46.685Z,24.50
2023-03-05T02:08:25.089Z,24.60
2023-03-05T02:11:03.282Z,23.90
2023-03-05T02:13:42.947Z,23.30
2023-03-05T02:16:19.939Z,24.00
2023-03-05T02:18:56.384Z,22.40
2023-03-05T02:21:42.232Z,23.20
2023-03-05T02:24:22.036Z,24.30
2023-03-05T02:26:59.376Z,23.20
2023-03-05T02:29:38.824Z,23.20
2023-03-05T02:32:16.785Z,24.80
2023-03-05T02:34:53.728Z,23.90
2023-03-05T02:37:30.161Z,25.50
2023-03-05T02:40:08.143Z,26.40
2023-03-05T02:42:44.197Z,26.50
2023-03-05T02:45:21.581Z,24.30
2023-03-05T02:47:58.035Z,25.60
2023-03-05T02:50:37.092Z,24.90
2023-03-05T02:53:14.573Z,23.90
2023-03-05T02:55:54.388Z,23.30
2023-03-05T02:58:31.613Z,22.60
2023-03-05T03:01:08.760Z,22.00
2023-03-05T03:03:45.912Z,21.30
2023-03-05T03:06:23.181Z,21.50
2023-03-05T03:09:00.758Z,20.20
2023-03-05T03:11:37.724Z,21.30
2023-03-05T03:14:15.226Z,21.30
2023-03-05T03:16:52.706Z,21.50
2023-03-05T03:19:29.257Z,21.70
2023-03-05T03:22:05.626Z,21.20
2023-03-05T03:24:44.232Z,20.40
2023-03-05T03:27:20.834Z,19.40
2023-03-05T03:29:57.669Z,20.50
2023-03-05T03:32:34.771Z,19.60
2023-03-05T03:35:16.020Z,20.10
2023-03-05T03:37:51.937Z,20.80
2023-03-05T03:40:29.408Z,21.40
2023-03-05T03:43:06.197Z,21.20
2023-03-05T03:45:45.984Z,23.80
2023-03-05T03:48:22.709Z,22.00
2023-03-05T03:50:59.338Z,21.60
2023-03-05T03:53:36.048Z,22.30
2023-03-05T03:56:14.572Z,22.00
2023-03-05T03:58:52.558Z,22.20
2023-03-05T04:01:30.499Z,21.80
2023-03-05T04:04:07.398Z,21.30
2023-03-05T04:06:44.113Z,21.00
2023-03-05T04:09:21.015Z,20.50
2023-03-05T04:11:57.534Z,20.20
2023-03-05T04:14:33.775Z,19.10
2023-03-05T04:17:11.443Z,19.50
2023-03-05T04:19:47.779Z,20.40
2023-03-05T04:22:24.388Z,18.50
2023-03-05T04:25:01.553Z,17.90
2023-03-05T04:27:41.012Z,18.90
2023-03-05T04:30:21.630Z,19.60
2023-03-05T04:32:58.747Z,19.10
2023-03-05T04:35:35.335Z,18.70
2023-03-05T04:38:12.596Z,18.90
2023-03-05T04:40:50.126Z,18.90
2023-03-05T04:43:27.281Z,19.80
2023-03-05T04:46:03.351Z,20.80
2023-03-05T04:48:40.620Z,19.20
2023-03-05T04:51:16.852Z,19.60
2023-03-05T04:53:53.670Z,19.90
2023-03-05T04:56:30.089Z,21.10
2023-03-05T04:59:06.447Z,21.90
2023-03-05T05:01:43.709Z,21.50
2023-03-05T05:04:20.655Z,22.00
2023-03-05T05:07:00.321Z,22.60
2023-03-05T05:09:36.776Z,23.00
2023-03-05T05:12:16.022Z,22.40
2023-03-05T05:14:52.867Z,22.90
2023-03-05T05:17:30.964Z,23.60
2023-03-05T05:20:08.820Z,22.40
2023-03-05T05:22:45.453Z,21.50
2023-03-05T05:25:23.471Z,20.60
2023-03-05T05:27:59.593Z,20.00
2023-03-05T05:30:37.053Z,20.40
2023-03-05T05:33:13.420Z,22.10
2023-03-05T05:35:50.719Z,20.60
2023-03-05T05:38:27.191Z,19.50
2023-03-05T05:41:12.957Z,19.60
2023-03-05T05:43:48.946Z,19.30
2023-03-05T05:46:27.090Z,16.70
2023-03-05T05:49:04.122Z,19.20
2023-03-05T05:51:40.859Z,17.90
2023-03-05T05:54:19.743Z,18.50
2023-03-05T05:56:56.898Z,17.80
2023-03-05T05:59:33.714Z,17.60
2023-03-05T06:02:11.509Z,20.10
2023-03-05T06:04:48.796Z,19.60
2023-03-05T06:07:25.615Z,21.50
2023-03-05T06:10:01.933Z,20.20
2023-03-05T06:12:38.880Z,17.30
2023-03-05T06:15:19.258Z,20.20
2023-03-05T06:17:56.088Z,21.80
2023-03-05T06:20:34.320Z,25.30
2023-03-05T06:23:11.040Z,25.30
2023-03-05T06:25:48.063Z,23.50
2023-03-05T06:28:25.395Z,22.80
2023-03-05T06:31:14.210Z,22.90
2023-03-05T06:33:51.976Z,23.60
2023-03-05T06:36:29.044Z,24.10
2023-03-05T06:39:06.820Z,23.30
2023-03-05T06:41:44.755Z,24.60
2023-03-05T06:44:22.066Z,24.50
2023-03-05T06:46:58.533Z,26.00
2023-03-05T06:49:34.589Z,24.10
2023-03-05T06:52:12.948Z,23.40
2023-03-05T06:54:50.167Z,24.00
2023-03-05T06:57:26.560Z,24.80
2023-03-05T07:00:08.258Z,24.60
2023-03-05T07:02:44.771Z,23.40
2023-03-05T07:05:21.880Z,23.50
2023-03-05T07:07:58.714Z,25.20
2023-03-05T07:10:36.120Z,24.60
2023-03-05T07:13:12.628Z,25.80
2023-03-05T07:15:50.596Z,21.50
2023-03-05T07:18:27.714Z,23.90
2023-03-05T07:21:09.095Z,25.00
2023-03-05T07:23:46.451Z,24.30
2023-03-05T07:26:23.374Z,22.20
2023-03-05T07:29:00.627Z,25.40
2023-03-05T07:31:37.303Z,23.50
2023-03-05T07:34:15.485Z,23.70
2023-03-05T07:36:55.910Z,26.60
2023-03-05T07:39:33.252Z,27.10
2023-03-05T07:42:09.320Z,25.40
2023-03-05T07:44:57.977Z,23.00
2023-03-05T07:47:34.908Z,23.60
2023-03-05T07:50:16.717Z,25.10
2023-03-05T07:52:53.215Z,23.90
2023-03-05T07:55:30.647Z,26.10
2023-03-05T07:58:06.711Z,23.60
2023-03-05T08:00:43.168Z,25.30
2023-03-05T08:03:19.246Z,24.70
2023-03-05T08:05:55.685Z,23.80
2023-03-05T08:08:32.824Z,26.20
2023-03-05T08:11:16.993Z,26.50
2023-03-05T08:13:53.797Z,26.90
2023-03-05T08:16:31.357Z,27.40
2023-03-05T08:19:07.753Z,24.20
2023-03-05T08:21:44.704Z,25.80
2023-03-05T08:24:22.842Z,20.80
2023-03-05T08:27:00.254Z,21.90
2023-03-05T08:29:37.110Z,23.20
2023-03-05T08:32:14.734Z,22.90
2023-03-05T08:34:51.295Z,23.40
2023-03-05T08:37:28.672Z,23.10
2023-03-05T08:40:05.516Z,23.60
2023-03-05T08:42:41.818Z,20.80
2023-03-05T08:45:22.023Z,22.20
2023-03-05T08:47:58.798Z,21.60
2023-03-05T08:50:38.605Z,22.70
2023-03-05T08:53:16.387Z,21.50
2023-03-05T08:56:01.308Z,22.00
2023-03-05T08:58:37.578Z,20.50
2023-03-05T09:01:16.057Z,21.90
2023-03-05T09:03:53.287Z,21.30
2023-03-05T09:06:30.974Z,19.80
2023-03-05T09:09:07.884Z,22.60
2023-03-05T09:11:44.766Z,22.00
2023-03-05T09:14:22.283Z,19.90
2023-03-05T09:16:58.313Z,21.50
2023-03-05T09:19:35.482Z,19.90
2023-03-05T09:22:12.422Z,19.10
2023-03-05T09:24:49.152Z,21.60
2023-03-05T09:27:26.331Z,21.70
2023-03-05T09:30:03.649Z,21.00
2023-03-05T09:32:40.201Z,21.80
2023-03-05T09:35:19.038Z,22.00
2023-03-05T09:37:57.069Z,21.80
2023-03-05T09:40:46.801Z,21.90
2023-03-05T09:43:42.682Z,21.90
2023-03-05T09:46:36.401Z,21.90
2023-03-05T09:49:23.677Z,21.00
2023-03-05T09:52:16.143Z,20.00
2023-03-05T09:55:00.526Z,20.70
2023-03-05T09:57:45.997Z,20.80
2023-03-05T10:00:45.235Z,19.60
2023-03-05T10:03:32.711Z,20.80
2023-03-05T10:06:23.623Z,22.60
2023-03-05T10:09:10.424Z,22.80
2023-03-05T10:11:57.183Z,21.30
2023-03-05T10:14:41.294Z,21.90
2023-03-05T10:17:53.531Z,22.20
2023-03-05T10:21:02.233Z,24.10
2023-03-05T10:24:02.615Z,22.90
2023-03-05T10:27:01.576Z,22.00
2023-03-05T10:30:15.185Z,22.30
2023-03-05T10:33:01.048Z,23.80
2023-03-05T10:36:13.492Z,21.00
2023-03-05T10:39:25.193Z,21.00
2023-03-05T10:42:19.000Z,20.80
2023-03-05T10:44:59.017Z,21.50
2023-03-05T10:47:48.193Z,22.20
2023-03-05T10:50:28.692Z,21.00
2023-03-05T10:53:22.089Z,21.90
2023-03-05T10:55:58.839Z,22.40
2023-03-05T10:58:35.009Z,22.70
2023-03-05T11:01:25.352Z,20.50
2023-03-05T11:04:03.921Z,21.20
2023-03-05T11:06:45.841Z,24.20
2023-03-05T11:09:29.647Z,19.20
2023-03-05T11:12:23.957Z,24.00
2023-03-05T11:15:28.903Z,22.20
2023-03-05T11:18:25.468Z,21.80
2023-03-05T11:21:22.073Z,23.50
2023-03-05T11:24:14.985Z,22.30
2023-03-05T11:27:02.581Z,24.20
2023-03-05T11:29:49.766Z,23.70
2023-03-05T11:32:31.721Z,25.30
2023-03-05T11:35:34.688Z,26.10
2023-03-05T11:38:20.750Z,24.80
2023-03-05T11:40:58.029Z,27.30
2023-03-05T11:43:39.077Z,22.00
2023-03-05T11:46:19.141Z,22.70
2023-03-05T11:48:56.623Z,22.50
2023-03-05T11:51:47.906Z,20.00
2023-03-05T11:54:36.706Z,23.10
2023-03-05T11:57:18.149Z,23.20
2023-03-05T11:59:55.129Z,22.80
2023-03-05T12:02:32.900Z,23.80
2023-03-05T12:05:11.012Z,24.10
2023-03-05T12:07:52.587Z,22.90
2023-03-05T12:10:30.918Z,23.20
2023-03-05T12:13:23.739Z,24.90
2023-03-05T12:16:16.276Z,22.40
2023-03-05T12:19:24.622Z,24.20
2023-03-05T12:22:02.126Z,23.20
2023-03-05T12:24:45.282Z,26.20
2023-03-05T12:27:37.100Z,24.50
2023-03-05T12:30:58.096Z,25.90
2023-03-05T12:33:41.817Z,25.40
2023-03-05T12:36:40.903Z,25.60
2023-03-05T12:39:59.399Z,22.00
2023-03-05T12:43:00.326Z,23.80
2023-03-05T12:45:42.085Z,23.90
2023-03-05T12:48:47.606Z,23.80
2023-03-05T12:51:47.716Z,25.20
2023-03-05T12:54:40.077Z,21.30
2023-03-05T12:57:24.563Z,24.80
2023-03-05T13:00:12.848Z,24.60
2023-03-05T13:02:53.166Z,23.20
2023-03-05T13:05:35.829Z,22.50
2023-03-05T13:08:25.526Z,24.30
2023-03-05T13:11:07.165Z,27.00
2023-03-05T13:13:49.303Z,25.50
2023-03-05T13:16:28.218Z,27.40
2023-03-05T13:19:07.194Z,27.50
2023-03-05T13:21:44.237Z,27.00
2023-03-05T13:24:25.048Z,26.40
2023-03-05T13:27:01.664Z,28.10
2023-03-05T13:29:38.603Z,24.90
2023-03-05T13:32:33.275Z,28.10
2023-03-05T13:35:18.134Z,27.00
2023-03-05T13:37:56.114Z,23.80
2023-03-05T13:40:34.317Z,24.30
2023-03-05T13:43:23.373Z,27.40
2023-03-05T13:46:03.188Z,28.70
2023-03-05T13:48:40.409Z,29.30
2023-03-05T13:51:16.772Z,26.10
2023-03-05T13:53:54.563Z,26.20
2023-03-05T13:56:30.589Z,26.20
2023-03-05T13:59:06.909Z,26.80
2023-03-05T14:01:48.558Z,28.40
2023-03-05T14:04:31.152Z,28.30
2023-03-05T14:07:11.522Z,26.90
2023-03-05T14:09:54.462Z,27.50
2023-03-05T14:12:37.734Z,27.10
2023-03-05T14:15:28.619Z,27.60
2023-03-05T14:18:24.998Z,27.50
2023-03-05T14:21:21.019Z,27.30
2023-03-05T14:23:59.379Z,25.70
2023-03-05T14:26:40.337Z,27.60
2023-03-05T14:29:24.521Z,28.80
2023-03-05T14:32:04.734Z,26.70
2023-03-05T14:34:45.406Z,29.30
2023-03-05T14:37:27.873Z,25.80
2023-03-05T14:40:07.531Z,27.80
2023-03-05T14:42:57.420Z,26.80
2023-03-05T14:45:36.862Z,25.40
2023-03-05T14:48:17.628Z,27.20
2023-03-05T14:50:57.336Z,26.00
2023-03-05T14:53:40.736Z,25.00
2023-03-05T14:56:28.301Z,24.20
2023-03-05T14:59:04.865Z,26.90
2023-03-05T15:01:40.877Z,25.00
2023-03-05T15:04:19.446Z,25.20
2023-03-05T15:06:57.303Z,24.40
2023-03-05T15:09:33.700Z,23.40
2023-03-05T15:12:15.893Z,25.50
2023-03-05T15:14:53.662Z,26.00
2023-03-05T15:17:36.256Z,26.90
2023-03-05T15:20:20.117Z,25.90
2023-03-05T15:22:55.912Z,28.90
2023-03-05T15:25:34.819Z,25.60
2023-03-05T15:28:13.062Z,24.00
2023-03-05T15:30:51.603Z,24.90
2023-03-05T15:33:27.685Z,23.70
2023-03-05T15:36:03.208Z,24.00
2023-03-05T15:38:41.663Z,25.60
2023-03-05T15:41:17.868Z,25.60
2023-03-05T15:43:54.871Z,24.60
2023-03-05T15:46:31.122Z,26.20
2023-03-05T15:49:07.648Z,26.30
2023-03-05T15:51:44.466Z,24.00
2023-03-05T15:54:20.517Z,27.70
2023-03-05T15:56:57.547Z,26.70
2023-03-05T15:59:34.233Z,28.20
2023-03-05T16:02:11.414Z,28.40
2023-03-05T16:04:48.734Z,29.70
2023-03-05T16:07:25.668Z,27.30
2023-03-05T16:10:03.039Z,26.20
2023-03-05T16:12:44.428Z,26.40
2023-03-05T16:15:24.881Z,27.90
2023-03-05T16:18:04.995Z,25.20
2023-03-05T16:20:42.471Z,26.70
2023-03-05T16:23:19.368Z,26.10
2023-03-05T16:25:57.192Z,27.70
2023-03-05T16:28:35.564Z,27.10
2023-03-05T16:31:12.957Z,26.40
2023-03-05T16:33:49.529Z,27.40
2023-03-05T16:36:29.155Z,30.80
2023-03-05T16:39:06.864Z,30.40
2023-03-05T16:41:44.033Z,30.40
2023-03-05T16:44:20.935Z,30.30
2023-03-05T16:46:57.623Z,29.30
2023-03-05T16:49:35.792Z,27.80
2023-03-05T16:52:18.726Z,28.00
2023-03-05T16:54:56.091Z,27.90
2023-03-05T16:57:32.821Z,27.70
2023-03-05T17:00:16.538Z,27.20
2023-03-05T17:02:53.848Z,30.90
2023-03-05T17:05:30.014Z,31.40
2023-03-05T17:08:06.534Z,32.90
2023-03-05T17:10:44.516Z,31.20
2023-03-05T17:13:21.393Z,34.50
2023-03-05T17:15:57.823Z,29.60
2023-03-05T17:18:34.244Z,31.20
2023-03-05T17:21:10.560Z,31.50
2023-03-05T17:23:47.269Z,32.40
2023-03-05T17:26:24.309Z,33.20
2023-03-05T17:29:00.921Z,36.20
2023-03-05T17:31:37.514Z,34.70
2023-03-05T17:34:14.397Z,34.50
2023-03-05T17:36:51.351Z,38.80
2023-03-05T17:39:27.889Z,34.00
2023-03-05T17:42:03.839Z,33.50
2023-03-05T17:44:40.605Z,30.80
2023-03-05T17:47:17.956Z,32.20
2023-03-05T17:49:56.105Z,29.90
2023-03-05T17:52:32.963Z,29.70
2023-03-05T17:55:12.705Z,29.30
2023-03-05T17:57:49.705Z,30.60
2023-03-05T18:00:32.111Z,32.50
2023-03-05T18:03:09.571Z,31.10
2023-03-05T18:05:46.678Z,30.00
2023-03-05T18:08:23.059Z,29.70
2023-03-05T18:10:59.262Z,31.30
2023-03-05T18:13:35.663Z,30.70
2023-03-05T18:16:14.609Z,29.80
2023-03-05T18:18:51.130Z,29.20
2023-03-05T18:21:28.986Z,31.70
2023-03-05T18:24:05.314Z,30.90
2023-03-05T18:26:41.552Z,31.30
2023-03-05T18:29:18.973Z,31.30
2023-03-05T18:31:55.629Z,31.30
2023-03-05T18:34:33.091Z,30.70
2023-03-05T18:37:09.459Z,30.70
2023-03-05T18:39:45.727Z,30.40
2023-03-05T18:42:22.758Z,30.40
2023-03-05T18:44:59.539Z,28.60
2023-03-05T18:47:36.651Z,32.90
2023-03-05T18:50:20.448Z,31.50
2023-03-05T18:52:57.402Z,30.50
2023-03-05T18:55:36.680Z,30.90
2023-03-05T18:58:14.711Z,30.10
2023-03-05T19:00:52.110Z,28.50
2023-03-05T19:03:28.509Z,32.90
2023-03-05T19:06:07.047Z,31.50
2023-03-05T19:08:43.137Z,31.90
2023-03-05T19:11:25.098Z,29.90
2023-03-05T19:14:02.150Z,32.10
2023-03-05T19:16:43.779Z,31.80
2023-03-05T19:19:26.734Z,30.90
2023-03-05T19:22:04.427Z,33.10
2023-03-05T19:24:41.440Z,29.40
2023-03-05T19:27:20.245Z,28.30
2023-03-05T19:29:56.584Z,32.30
2023-03-05T19:32:32.748Z,33.10
2023-03-05T19:35:11.593Z,28.70
2023-03-05T19:37:49.910Z,29.30
2023-03-05T19:40:28.585Z,30.90
2023-03-05T19:43:07.152Z,26.60
2023-03-05T19:45:43.658Z,27.90
2023-03-05T19:48:20.616Z,28.20
2023-03-05T19:50:56.952Z,28.60
2023-03-05T19:53:33.861Z,28.20
2023-03-05T19:56:12.450Z,26.10
2023-03-05T19:58:50.429Z,26.80
2023-03-05T20:01:28.467Z,25.90
2023-03-05T20:04:08.057Z,25.70
2023-03-05T20:06:44.150Z,23.50
2023-03-05T20:09:20.792Z,23.90
2023-03-05T20:12:03.580Z,22.30
2023-03-05T20:14:40.676Z,23.50
2023-03-05T20:17:17.034Z,21.60
2023-03-05T20:19:55.758Z,21.80
2023-03-05T20:22:33.721Z,20.50
2023-03-05T20:25:13.066Z,21.60
2023-03-05T20:27:50.247Z,20.00
2023-03-05T20:30:28.094Z,19.60
2023-03-05T20:33:05.320Z,21.80
2023-03-05T20:35:42.085Z,20.40
2023-03-05T20:40:21.659Z,20.80
2023-03-05T20:42:58.770Z,21.50
2023-03-05T20:45:37.391Z,21.70
2023-03-05T20:48:15.562Z,25.30
2023-03-05T20:50:56.066Z,24.60
2023-03-05T20:53:35.549Z,23.00
2023-03-05T20:56:13.342Z,24.20
2023-03-05T20:58:50.447Z,21.00
2023-03-05T21:01:27.053Z,17.90
2023-03-05T21:04:04.360Z,19.80
2023-03-05T21:06:41.302Z,24.90
2023-03-05T21:09:18.336Z,24.30
2023-03-05T21:11:57.361Z,25.10
2023-03-05T21:14:38.074Z,24.40
2023-03-05T21:17:16.026Z,26.00
2023-03-05T21:19:53.789Z,26.60
2023-03-05T21:22:31.153Z,28.80
2023-03-05T21:25:28.485Z,28.90
2023-03-05T21:28:08.192Z,26.90
2023-03-05T21:30:47.339Z,27.90
2023-03-05T21:33:28.724Z,29.30
2023-03-05T21:36:05.375Z,28.40
2023-03-05T21:38:42.995Z,27.40
2023-03-05T21:41:20.581Z,28.30
2023-03-05T21:43:57.726Z,28.20
2023-03-05T21:46:38.376Z,29.40
2023-03-05T21:49:15.426Z,28.00
2023-03-05T21:52:17.194Z,28.40
2023-03-05T21:54:55.103Z,27.20
2023-03-05T21:57:32.722Z,27.00
2023-03-05T22:00:15.330Z,31.70
2023-03-05T22:02:52.902Z,25.80
2023-03-05T22:05:31.097Z,26.80
2023-03-05T22:08:09.446Z,25.80
2023-03-05T22:10:48.408Z,25.10
2023-03-05T22:13:25.488Z,24.80
2023-03-05T22:16:07.364Z,25.40
2023-03-05T22:18:44.699Z,25.70
2023-03-05T22:21:27.539Z,25.60
2023-03-05T22:24:05.439Z,26.80
2023-03-05T22:26:46.676Z,24.70
2023-03-05T22:29:23.997Z,27.10
2023-03-05T22:32:01.929Z,27.00
2023-03-05T22:34:39.355Z,27.00
2023-03-05T22:37:16.327Z,25.70
2023-03-05T22:39:56.418Z,27.40
2023-03-05T22:42:33.718Z,27.70
2023-03-05T22:45:12.911Z,28.10
2023-03-05T22:47:52.605Z,28.90
2023-03-05T22:50:30.525Z,28.90
2023-03-05T22:53:07.277Z,27.50
2023-03-05T22:55:46.403Z,26.40
2023-03-05T22:58:24.061Z,28.60
2023-03-05T23:01:01.615Z,28.30
2023-03-05T23:03:38.977Z,27.40
2023-03-05T23:06:18.683Z,27.60
2023-03-05T23:08:55.627Z,27.60
2023-03-05T23:11:32.570Z,26.00
2023-03-05T23:14:08.951Z,24.60
2023-03-05T23:16:46.564Z,24.70
2023-03-05T23:19:22.910Z,22.00
2023-03-05T23:21:59.836Z,23.00
2023-03-05T23:24:36.966Z,23.40
2023-03-05T23:27:16.567Z,22.60
2023-03-05T23:30:23.452Z,23.30
2023-03-05T23:33:02.310Z,21.60
2023-03-05T23:35:44.675Z,21.70
2023-03-05T23:38:21.862Z,21.70
2023-03-05T23:41:01.245Z,21.40
2023-03-05T23:43:37.624Z,22.00
2023-03-05T23:46:18.297Z,20.30
2023-03-05T23:48:54.952Z,21.50
2023-03-05T23:51:31.808Z,23.50
2023-03-05T23:54:10.085Z,25.00
2023-03-05T23:56:46.801Z,22.90
2023-03-05T23:59:25.816Z,23.80
